Stockton, Illinois
Current Conditions -  °F | °C
As of 5:15 AM on Saturday 25 Oct 2014 (Local Time) from KSFY Reporting Station
Haze Haze  
Wind Chill: 58°   Ceiling: 600
Heat Index: 58°   Visibility: 3mi
Dew Point: 56°   Wind: 0mph
Humidity: 91%   Direction: NA
Pressure: 29.94"   Gusts: NA
Location:  42.35°N, 90.01°W
Report Text: KSFY 251015Z AUTO 00000KT 3SM BR BKN006 15/13 A2994 RMK AO2 T01470133
Loading
Personal Weather Stations






























Interactive Weather Map
Tropical Storm Tracking
New forecast layout! Learn more

10-Day Weather Forecast

Advertisements
Track Severe Weather on mobile